Time;durP1;ratioP1;P1;durP2;ratioP2;P2;SDS_P1;SDS_P2;PMS_P1;PMS_P2;Temp;Humidity;BMP_temperature;BMP_pressure;BME280_temperature;BME280_humidity;BME280_pressure;Samples;Min_cycle;Max_cycle;Signal;HPM_P1;HPM_P2
2020/12/26 00:08:10;;;;;;;1.80;0.65;;;11.00;58.60;;;;;;20629074;28;20077;-74
2020/12/26 00:18:11;;;;;;;0.88;0.70;;;11.00;58.60;;;;;;20604977;28;20516;-75
2020/12/26 00:28:12;;;;;;;0.60;0.40;;;11.00;58.60;;;;;;20599088;28;20034;-73
2020/12/26 00:38:12;;;;;;;2.70;0.40;;;11.00;58.60;;;;;;20619583;28;20030;-74
2020/12/26 00:48:13;;;;;;;4.97;0.93;;;11.00;58.70;;;;;;20625508;28;20093;-77
2020/12/26 00:58:14;;;;;;;1.27;0.77;;;11.00;58.70;;;;;;20617914;28;20034;-75
2020/12/26 01:08:15;;;;;;;1.60;0.60;;;11.00;58.70;;;;;;20616615;28;20547;-75
2020/12/26 01:18:16;;;;;;;1.50;0.88;;;11.00;58.80;;;;;;20609798;28;20449;-74
2020/12/26 01:28:17;;;;;;;1.95;0.90;;;10.90;58.70;;;;;;20632562;28;20543;-76
2020/12/26 01:38:18;;;;;;;0.60;0.55;;;10.90;58.70;;;;;;20608070;28;20038;-74
2020/12/26 01:48:18;;;;;;;2.38;1.10;;;10.90;58.70;;;;;;20610881;28;20342;-75
2020/12/26 01:58:19;;;;;;;0.80;0.63;;;10.90;58.70;;;;;;20597759;28;20038;-74
2020/12/26 02:08:19;;;;;;;2.63;1.33;;;10.90;58.80;;;;;;20658423;28;20058;-78
2020/12/26 02:18:21;;;;;;;0.80;0.80;;;10.90;58.80;;;;;;20624603;28;20382;-77
2020/12/26 02:28:22;;;;;;;2.30;0.82;;;10.90;58.80;;;;;;20610964;28;20034;-75
2020/12/26 02:38:25;;;;;;;0.68;0.40;;;10.90;59.00;;;;;;20626050;28;20559;-76
2020/12/26 02:48:26;;;;;;;0.63;0.60;;;10.90;59.00;;;;;;20637907;28;20081;-75
2020/12/26 02:58:27;;;;;;;1.35;0.70;;;10.90;59.10;;;;;;20597092;28;20466;-76
2020/12/26 03:08:27;;;;;;;1.27;0.70;;;10.90;59.20;;;;;;20606541;28;20073;-74
2020/12/26 03:18:28;;;;;;;1.80;0.80;;;10.90;59.20;;;;;;20616655;28;20048;-75
2020/12/26 03:28:28;;;;;;;0.85;0.55;;;10.80;59.10;;;;;;20594406;28;20027;-74
2020/12/26 03:38:29;;;;;;;1.30;0.82;;;10.90;59.20;;;;;;20628108;28;20126;-74
2020/12/26 03:48:31;;;;;;;0.95;0.40;;;10.90;59.40;;;;;;20624264;28;20038;-75
2020/12/26 03:58:32;;;;;;;1.00;0.63;;;10.80;59.40;;;;;;20630855;28;20031;-74
2020/12/26 04:08:32;;;;;;;0.95;0.57;;;10.80;59.30;;;;;;20602725;28;20474;-76
2020/12/26 04:18:33;;;;;;;2.47;1.00;;;10.90;59.40;;;;;;20598012;28;20035;-80
2020/12/26 04:28:33;;;;;;;2.22;0.70;;;10.80;59.40;;;;;;20602142;28;20073;-74
2020/12/26 04:38:34;;;;;;;1.23;0.52;;;10.80;59.40;;;;;;20594253;28;20035;-75
2020/12/26 04:48:35;;;;;;;1.60;0.95;;;10.80;59.40;;;;;;20612593;28;20038;-78
2020/12/26 04:58:35;;;;;;;1.60;0.80;;;10.80;59.40;;;;;;20609130;28;20397;-74
2020/12/26 05:08:36;;;;;;;0.80;0.52;;;10.80;60.00;;;;;;20596322;28;20547;-74
2020/12/26 05:18:38;;;;;;;0.50;0.50;;;10.80;59.80;;;;;;20634959;28;20147;-74
2020/12/26 05:28:38;;;;;;;2.25;0.60;;;11.00;60.00;;;;;;20628707;28;20374;-76
2020/12/26 05:38:39;;;;;;;1.02;0.93;;;11.40;59.70;;;;;;20602784;28;20038;-74
2020/12/26 05:48:40;;;;;;;4.40;0.90;;;11.60;58.80;;;;;;20648033;28;20177;-75
2020/12/26 05:58:41;;;;;;;1.77;0.85;;;11.80;58.10;;;;;;20600181;28;20375;-74
2020/12/26 06:08:42;;;;;;;2.40;0.80;;;12.00;57.40;;;;;;20574676;28;20043;-77
2020/12/26 06:18:58;;;;;;;1.67;0.77;;;11.80;56.70;;;;;;20639550;28;20046;-75
2020/12/26 06:28:58;;;;;;;0.77;0.50;;;11.70;56.60;;;;;;20596928;28;20089;-78
2020/12/26 06:38:59;;;;;;;1.10;0.65;;;11.50;56.70;;;;;;20622335;28;20039;-76
2020/12/26 06:49:01;;;;;;;1.10;0.52;;;11.30;57.20;;;;;;20611973;28;20389;-75
2020/12/26 06:59:15;;;;;;;0.65;0.55;;;11.20;57.50;;;;;;20607708;28;20082;-75
2020/12/26 07:09:20;;;;;;;0.95;0.57;;;11.20;57.90;;;;;;20628272;28;20113;-75
2020/12/26 07:19:23;;;;;;;2.08;0.85;;;11.10;58.10;;;;;;20645571;28;20050;-74
2020/12/26 07:29:25;;;;;;;1.55;0.63;;;11.10;58.40;;;;;;20618123;28;20043;-76
2020/12/26 07:39:25;;;;;;;2.03;0.57;;;11.00;58.50;;;;;;20598592;28;20050;-74
2020/12/26 07:49:26;;;;;;;1.05;0.47;;;11.10;58.70;;;;;;20639763;28;20137;-74
2020/12/26 07:59:27;;;;;;;0.77;0.52;;;11.00;58.80;;;;;;20623755;28;20049;-78
2020/12/26 08:09:29;;;;;;;0.60;0.40;;;11.00;58.80;;;;;;20628161;28;20445;-74
2020/12/26 08:19:29;;;;;;;0.80;0.47;;;11.00;59.00;;;;;;20602487;28;20046;-77
2020/12/26 08:29:32;;;;;;;0.40;0.40;;;11.00;59.00;;;;;;20610223;28;20121;-73
2020/12/26 08:39:33;;;;;;;0.35;0.35;;;11.00;59.00;;;;;;20578406;28;20046;-75
2020/12/26 08:49:34;;;;;;;1.75;1.05;;;11.00;59.10;;;;;;20602870;28;20026;-74
2020/12/26 08:59:34;;;;;;;1.38;0.90;;;11.00;59.20;;;;;;20625699;28;20495;-75
2020/12/26 09:09:36;;;;;;;1.67;0.82;;;11.00;59.20;;;;;;20622933;28;20489;-75
2020/12/26 09:19:44;;;;;;;0.40;0.30;;;10.90;59.20;;;;;;20929939;23;20051;-74
2020/12/26 09:29:45;;;;;;;1.10;0.82;;;10.90;59.30;;;;;;20535879;28;20126;-75
2020/12/26 09:39:46;;;;;;;1.33;0.52;;;10.90;59.30;;;;;;20505870;28;20114;-74
2020/12/26 09:49:46;;;;;;;1.65;0.82;;;10.90;59.40;;;;;;20521921;28;20043;-71
2020/12/26 09:59:47;;;;;;;1.00;0.55;;;10.90;59.50;;;;;;20542621;28;20082;-71
2020/12/26 10:09:47;;;;;;;2.53;1.00;;;10.90;59.50;;;;;;20513608;28;20073;-72
2020/12/26 10:19:48;;;;;;;1.38;0.90;;;10.90;59.70;;;;;;20535566;28;20047;-71
2020/12/26 10:29:49;;;;;;;0.52;0.47;;;11.20;59.90;;;;;;20527170;28;20110;-72
2020/12/26 10:39:50;;;;;;;0.55;0.38;;;11.50;59.50;;;;;;20526915;28;20425;-72
2020/12/26 10:49:50;;;;;;;0.20;0.20;;;11.70;58.60;;;;;;20538585;28;20086;-71
2020/12/26 10:59:51;;;;;;;0.77;0.47;;;11.70;57.70;;;;;;20516967;28;20071;-71
2020/12/26 11:09:51;;;;;;;1.50;0.57;;;11.60;57.50;;;;;;20515853;28;20047;-72
2020/12/26 11:19:52;;;;;;;3.15;0.80;;;11.40;57.50;;;;;;20540484;28;20469;-73
2020/12/26 11:29:53;;;;;;;0.43;0.43;;;11.30;57.90;;;;;;20508281;28;20031;-71
2020/12/26 11:39:54;;;;;;;1.17;1.05;;;11.20;58.10;;;;;;20499803;28;20536;-71
2020/12/26 11:49:55;;;;;;;1.00;0.90;;;11.20;58.50;;;;;;20532819;28;20031;-72
2020/12/26 11:59:55;;;;;;;1.30;0.73;;;11.10;58.70;;;;;;20505383;28;20445;-71
2020/12/26 12:09:56;;;;;;;3.40;0.93;;;11.10;58.90;;;;;;20517405;28;20489;-72
2020/12/26 12:19:56;;;;;;;1.50;0.57;;;11.10;59.10;;;;;;20517174;28;20177;-71
2020/12/26 12:29:57;;;;;;;2.47;0.80;;;11.00;59.20;;;;;;20521314;28;20112;-71
2020/12/26 12:39:58;;;;;;;0.55;0.38;;;11.00;59.30;;;;;;20513482;28;20122;-71
2020/12/26 12:49:58;;;;;;;0.65;0.63;;;11.00;59.40;;;;;;20499231;28;20047;-72
2020/12/26 12:59:59;;;;;;;3.33;1.15;;;11.00;59.50;;;;;;20497482;28;21155;-71
2020/12/26 13:09:59;;;;;;;2.72;1.33;;;11.00;59.50;;;;;;20478941;28;20379;-71
2020/12/26 13:20:00;;;;;;;0.63;0.63;;;11.00;59.50;;;;;;20513466;28;20502;-71
2020/12/26 13:30:01;;;;;;;1.63;0.63;;;10.90;60.10;;;;;;20504911;28;20118;-70
2020/12/26 13:40:03;;;;;;;0.90;0.68;;;10.90;59.50;;;;;;20538261;28;20035;-71
2020/12/26 13:50:04;;;;;;;0.90;0.50;;;10.90;59.50;;;;;;20525964;28;20437;-73
2020/12/26 14:00:04;;;;;;;1.75;1.05;;;10.90;59.50;;;;;;20537032;28;20067;-72
2020/12/26 14:10:12;;;;;;;4.32;1.08;;;11.00;59.60;;;;;;20535029;28;20505;-71
2020/12/26 14:20:12;;;;;;;1.73;0.85;;;11.00;60.00;;;;;;20539866;28;20133;-71
2020/12/26 14:30:13;;;;;;;2.08;1.33;;;11.30;60.10;;;;;;20540299;28;20039;-72
2020/12/26 14:40:13;;;;;;;0.70;0.50;;;11.50;59.60;;;;;;20533738;28;20177;-72
2020/12/26 14:50:14;;;;;;;0.77;0.30;;;11.80;59.00;;;;;;20527046;28;20113;-71
2020/12/26 15:00:14;;;;;;;1.27;0.57;;;11.90;58.10;;;;;;20530822;28;20035;-72
2020/12/26 15:10:15;;;;;;;0.47;0.43;;;11.80;57.40;;;;;;20528616;28;20458;-71
2020/12/26 15:20:16;;;;;;;0.50;0.50;;;11.60;58.00;;;;;;20517919;28;20066;-71
2020/12/26 15:30:17;;;;;;;0.73;0.43;;;11.50;57.40;;;;;;20533031;28;20090;-71
2020/12/26 15:40:18;;;;;;;1.55;0.77;;;11.30;57.70;;;;;;20513981;28;20034;-71
2020/12/26 15:50:18;;;;;;;0.82;0.55;;;11.20;58.10;;;;;;20512942;28;20035;-71
2020/12/26 16:00:19;;;;;;;1.10;0.63;;;11.20;58.40;;;;;;20511354;28;20471;-71
2020/12/26 16:10:19;;;;;;;0.77;0.47;;;11.10;58.50;;;;;;20529818;28;20031;-72
2020/12/26 16:20:21;;;;;;;2.45;0.98;;;11.10;58.80;;;;;;20529152;28;20046;-72
2020/12/26 16:30:22;;;;;;;1.17;0.50;;;11.10;59.00;;;;;;20505542;28;20302;-70
2020/12/26 16:40:23;;;;;;;1.35;0.60;;;11.10;59.10;;;;;;20522333;28;20033;-72
2020/12/26 16:50:26;;;;;;;1.33;0.70;;;11.10;59.30;;;;;;20523050;28;20043;-71
2020/12/26 17:00:26;;;;;;;0.63;0.50;;;11.10;59.30;;;;;;20522978;28;20097;-71
2020/12/26 17:10:27;;;;;;;0.45;0.43;;;11.10;59.20;;;;;;20527643;28;20035;-71
2020/12/26 17:20:29;;;;;;;1.05;0.68;;;11.10;59.20;;;;;;20516315;28;20050;-72
2020/12/26 17:30:29;;;;;;;0.73;0.20;;;11.10;59.30;;;;;;20509109;28;20096;-71
2020/12/26 17:40:30;;;;;;;0.50;0.40;;;11.10;59.40;;;;;;20495006;28;20027;-73
2020/12/26 17:50:31;;;;;;;0.65;0.40;;;11.10;59.40;;;;;;20505527;28;20035;-69
2020/12/26 18:00:31;;;;;;;0.93;0.68;;;11.10;59.60;;;;;;20514348;28;20039;-71
2020/12/26 18:10:32;;;;;;;0.50;0.50;;;11.10;59.50;;;;;;20505725;28;20130;-73
2020/12/26 18:20:33;;;;;;;0.52;0.30;;;11.00;59.50;;;;;;20528354;28;20050;-73
2020/12/26 18:30:33;;;;;;;1.52;0.60;;;11.00;59.60;;;;;;20521517;28;20031;-72
2020/12/26 18:40:34;;;;;;;0.47;0.30;;;11.00;59.60;;;;;;20503511;28;20035;-74
2020/12/26 18:50:35;;;;;;;0.45;0.30;;;11.00;59.70;;;;;;20536821;28;20035;-73
2020/12/26 19:00:35;;;;;;;2.00;0.60;;;11.00;59.70;;;;;;20529142;28;20279;-70
2020/12/26 19:10:36;;;;;;;2.63;0.77;;;11.00;59.70;;;;;;20535842;28;20294;-73
2020/12/26 19:20:37;;;;;;;1.15;0.60;;;11.00;59.70;;;;;;20516203;28;20035;-75
2020/12/26 19:30:37;;;;;;;2.72;0.75;;;11.00;59.60;;;;;;20511598;28;20049;-73
2020/12/26 19:40:39;;;;;;;1.33;0.40;;;10.90;59.60;;;;;;20477991;28;20090;-72
2020/12/26 19:50:46;;;;;;;0.20;0.20;;;11.00;59.70;;;;;;20489734;28;20127;-73
2020/12/26 20:00:46;;;;;;;0.25;0.20;;;11.00;59.70;;;;;;20490484;28;20035;-72
2020/12/26 20:10:47;;;;;;;0.80;0.50;;;10.90;59.60;;;;;;20487165;28;20478;-73
2020/12/26 20:20:47;;;;;;;0.65;0.38;;;11.00;59.70;;;;;;20480467;28;20043;-72
2020/12/26 20:30:48;;;;;;;0.88;0.47;;;10.90;59.60;;;;;;20501490;28;20039;-71
2020/12/26 20:40:51;;;;;;;0.55;0.50;;;10.90;59.60;;;;;;20527278;28;20051;-72
2020/12/26 20:50:52;;;;;;;0.45;0.20;;;10.90;59.70;;;;;;20510061;28;20031;-71
2020/12/26 21:00:53;;;;;;;0.80;0.40;;;10.90;59.70;;;;;;20499511;28;20038;-71
2020/12/26 21:10:54;;;;;;;0.20;0.20;;;10.90;59.70;;;;;;20517933;28;20540;-71
2020/12/26 21:20:56;;;;;;;0.30;0.30;;;10.90;59.70;;;;;;20521085;28;20043;-72
2020/12/26 21:30:57;;;;;;;0.25;0.25;;;10.90;59.70;;;;;;20527655;28;20125;-72
2020/12/26 21:40:57;;;;;;;0.43;0.25;;;10.90;59.60;;;;;;20510625;28;20538;-72
2020/12/26 21:50:58;;;;;;;0.50;0.45;;;10.90;59.60;;;;;;20546508;28;20039;-72
2020/12/26 22:00:58;;;;;;;1.00;0.63;;;10.90;59.70;;;;;;20527215;28;20109;-72
2020/12/26 22:11:05;;;;;;;0.35;0.32;;;10.80;59.50;;;;;;20525887;28;20034;-73
2020/12/26 22:21:05;;;;;;;0.25;0.25;;;10.80;59.60;;;;;;20538688;28;20035;-71
2020/12/26 22:31:06;;;;;;;0.20;0.20;;;10.90;59.60;;;;;;20540583;28;20550;-71
2020/12/26 22:41:07;;;;;;;0.45;0.30;;;10.90;59.60;;;;;;20537209;28;20070;-72
2020/12/26 22:51:08;;;;;;;0.28;0.22;;;10.80;59.60;;;;;;20512875;28;20122;-71
2020/12/26 23:01:08;;;;;;;0.40;0.30;;;10.80;59.60;;;;;;20508931;28;20060;-72
2020/12/26 23:11:09;;;;;;;1.20;0.55;;;10.80;59.60;;;;;;20514655;28;20305;-72
2020/12/26 23:21:09;;;;;;;0.40;0.30;;;10.90;59.70;;;;;;20500990;28;20047;-71
2020/12/26 23:31:17;;;;;;;0.30;0.30;;;10.80;59.60;;;;;;20514596;28;20130;-71
2020/12/26 23:41:18;;;;;;;1.05;0.40;;;10.80;59.60;;;;;;20511753;28;20113;-72
2020/12/26 23:51:20;;;;;;;1.35;0.43;;;10.80;59.60;;;;;;20539174;28;20118;-73
